createdAt,value
2024-02-16T00:01:52.929Z,100.00
2024-02-16T00:04:26.098Z,100.00
2024-02-16T00:07:12.928Z,100.00
2024-02-16T00:09:46.069Z,100.00
2024-02-16T00:12:32.949Z,100.00
2024-02-16T00:15:09.541Z,100.00
2024-02-16T00:17:57.083Z,100.00
2024-02-16T00:20:37.923Z,100.00
2024-02-16T00:23:26.920Z,100.00
2024-02-16T00:26:06.925Z,100.00
2024-02-16T00:28:53.928Z,100.00
2024-02-16T00:31:33.998Z,100.00
2024-02-16T00:34:15.760Z,100.00
2024-02-16T00:37:02.903Z,100.00
2024-02-16T00:39:48.940Z,100.00
2024-02-16T00:42:32.232Z,100.00
2024-02-16T00:45:13.062Z,100.00
2024-02-16T00:47:53.174Z,100.00
2024-02-16T00:50:33.914Z,100.00
2024-02-16T00:53:20.927Z,100.00
2024-02-16T00:56:19.926Z,100.00
2024-02-16T00:59:00.055Z,100.00
2024-02-16T01:01:39.898Z,100.00
2024-02-16T01:04:33.986Z,100.00
2024-02-16T01:07:27.984Z,100.00
2024-02-16T01:10:14.946Z,100.00
2024-02-16T01:12:48.084Z,100.00
2024-02-16T01:15:35.017Z,100.00
2024-02-16T01:18:08.232Z,100.00
2024-02-16T01:20:54.944Z,100.00
2024-02-16T01:23:34.932Z,100.00
2024-02-16T01:26:21.961Z,100.00
2024-02-16T01:28:55.039Z,100.00
2024-02-16T01:31:43.967Z,100.00
2024-02-16T01:34:17.154Z,100.00
2024-02-16T01:37:03.961Z,100.00
2024-02-16T01:39:37.079Z,100.00
2024-02-16T01:42:30.963Z,100.00
2024-02-16T01:45:12.020Z,100.00
2024-02-16T01:47:53.269Z,100.00
2024-02-16T01:50:35.114Z,100.00
2024-02-16T01:53:18.935Z,100.00
2024-02-16T01:56:02.937Z,100.00
2024-02-16T01:58:56.990Z,100.00
2024-02-16T02:01:43.931Z,100.00
2024-02-16T02:04:18.136Z,100.00
2024-02-16T02:07:05.011Z,100.00
2024-02-16T02:09:39.160Z,100.00
2024-02-16T02:12:26.042Z,100.00
2024-02-16T02:15:00.221Z,100.00
2024-02-16T02:17:47.107Z,100.00
2024-02-16T02:20:20.088Z,100.00
2024-02-16T02:23:06.945Z,100.00
2024-02-16T02:25:41.280Z,100.00
2024-02-16T02:28:31.939Z,100.00
2024-02-16T02:31:11.956Z,100.00
2024-02-16T02:34:06.049Z,100.00
2024-02-16T02:36:52.961Z,100.00
2024-02-16T02:39:33.190Z,100.00
2024-02-16T02:42:13.103Z,100.00
2024-02-16T02:45:00.030Z,100.00
2024-02-16T02:47:33.820Z,100.00
2024-02-16T02:50:21.049Z,100.00
2024-02-16T02:52:54.303Z,100.00
2024-02-16T02:55:40.967Z,100.00
2024-02-16T02:58:14.316Z,100.00
2024-02-16T03:01:00.987Z,100.00
2024-02-16T03:03:41.068Z,100.00
2024-02-16T03:06:32.075Z,100.00
2024-02-16T03:09:06.375Z,100.00
2024-02-16T03:11:54.043Z,100.00
2024-02-16T03:14:27.402Z,100.00
2024-02-16T03:17:13.998Z,100.00
2024-02-16T03:20:00.958Z,100.00
2024-02-16T03:22:41.075Z,100.00
2024-02-16T03:25:28.968Z,100.00
2024-02-16T03:28:02.286Z,100.00
2024-02-16T03:30:49.988Z,100.00
2024-02-16T03:33:23.384Z,100.00
2024-02-16T03:36:10.987Z,100.00
2024-02-16T03:38:44.322Z,100.00
2024-02-16T03:41:30.989Z,100.00
2024-02-16T03:44:04.105Z,100.00
2024-02-16T03:46:52.497Z,100.00
2024-02-16T03:49:29.307Z,100.00
2024-02-16T03:52:15.989Z,100.00
2024-02-16T03:54:50.513Z,100.00
2024-02-16T03:57:38.040Z,100.00
2024-02-16T04:00:13.574Z,100.00
2024-02-16T04:03:01.032Z,100.00
2024-02-16T04:05:36.231Z,100.00
2024-02-16T04:08:22.993Z,100.00
2024-02-16T04:11:03.027Z,100.00
2024-02-16T04:13:53.038Z,100.00
2024-02-16T04:16:26.350Z,100.00
2024-02-16T04:19:13.134Z,100.00
2024-02-16T04:21:46.121Z,100.00
2024-02-16T04:24:33.066Z,100.00
2024-02-16T04:27:13.112Z,100.00
2024-02-16T04:30:07.008Z,100.00
2024-02-16T04:33:01.159Z,100.00
2024-02-16T04:35:56.027Z,100.00
2024-02-16T04:38:50.151Z,100.00
2024-02-16T04:41:36.996Z,100.00
2024-02-16T04:44:10.136Z,100.00
2024-02-16T04:47:00.029Z,100.00
2024-02-16T04:49:40.057Z,100.00
2024-02-16T04:52:30.600Z,100.00
2024-02-16T04:55:04.965Z,100.00
2024-02-16T04:57:51.996Z,100.00
2024-02-16T05:00:32.060Z,100.00
2024-02-16T05:03:26.068Z,100.00
2024-02-16T05:06:20.096Z,100.00
2024-02-16T05:09:07.048Z,100.00
2024-02-16T05:11:41.153Z,100.00
2024-02-16T05:14:28.024Z,100.00
2024-02-16T05:17:01.104Z,100.00
2024-02-16T05:19:48.041Z,100.00
2024-02-16T05:22:29.003Z,100.00
2024-02-16T05:25:18.033Z,100.00
2024-02-16T05:27:58.994Z,100.00
2024-02-16T05:30:49.006Z,100.00
2024-02-16T05:33:36.212Z,100.00
2024-02-16T05:36:35.071Z,100.00
2024-02-16T05:39:34.050Z,100.00
2024-02-16T05:42:21.023Z,100.00
2024-02-16T05:44:57.050Z,100.00
2024-02-16T05:47:46.073Z,100.00
2024-02-16T05:50:30.262Z,100.00
2024-02-16T05:53:18.029Z,100.00
2024-02-16T05:55:51.179Z,100.00
2024-02-16T05:58:38.014Z,100.00
2024-02-16T06:01:13.843Z,100.00
2024-02-16T06:04:08.066Z,100.00
2024-02-16T06:06:55.113Z,100.00
2024-02-16T06:09:41.097Z,100.00
2024-02-16T06:12:35.149Z,100.00
2024-02-16T06:15:23.165Z,100.00
2024-02-16T06:17:57.298Z,100.00
2024-02-16T06:20:44.027Z,100.00
2024-02-16T06:23:25.075Z,100.00
2024-02-16T06:26:17.068Z,100.00
2024-02-16T06:28:50.446Z,100.00
2024-02-16T06:31:37.071Z,100.00
2024-02-16T06:34:17.216Z,100.00
2024-02-16T06:37:11.074Z,100.00
2024-02-16T06:40:05.065Z,100.00
2024-02-16T06:42:59.103Z,100.00
2024-02-16T06:45:46.072Z,100.00
2024-02-16T06:48:26.267Z,100.00
2024-02-16T06:51:20.164Z,100.00
2024-02-16T06:54:15.089Z,100.00
2024-02-16T06:57:12.057Z,100.00
2024-02-16T07:00:01.198Z,100.00
2024-02-16T07:02:41.075Z,100.00
2024-02-16T07:05:37.547Z,100.00
2024-02-16T07:08:25.102Z,100.00
2024-02-16T07:11:00.674Z,100.00
2024-02-16T07:13:52.115Z,100.00
2024-02-16T07:16:25.182Z,100.00
2024-02-16T07:19:13.200Z,100.00
2024-02-16T07:21:46.311Z,100.00
2024-02-16T07:24:33.179Z,100.00
2024-02-16T07:27:14.110Z,100.00
2024-02-16T07:29:57.131Z,100.00
2024-02-16T07:32:37.395Z,100.00
2024-02-16T07:35:21.995Z,100.00
2024-02-16T07:38:03.379Z,100.00
2024-02-16T07:40:43.079Z,100.00
2024-02-16T07:43:25.220Z,100.00
2024-02-16T07:46:05.337Z,100.00
2024-02-16T07:48:45.332Z,100.00
2024-02-16T07:51:28.181Z,100.00
2024-02-16T07:54:15.160Z,100.00
2024-02-16T07:56:55.190Z,100.00
2024-02-16T07:59:35.190Z,100.00
2024-02-16T08:02:17.125Z,100.00
2024-02-16T08:05:16.196Z,100.00
2024-02-16T08:08:06.034Z,100.00
2024-02-16T08:10:39.285Z,100.00
2024-02-16T08:13:27.081Z,100.00
2024-02-16T08:16:07.131Z,100.00
2024-02-16T08:19:01.259Z,100.00
2024-02-16T08:21:48.203Z,100.00
2024-02-16T08:24:28.192Z,100.00
2024-02-16T08:27:16.859Z,100.00
2024-02-16T08:29:53.060Z,100.00
2024-02-16T08:32:40.356Z,100.00
2024-02-16T08:35:22.137Z,100.00
2024-02-16T08:38:09.084Z,100.00
2024-02-16T08:40:49.266Z,100.00
2024-02-16T08:43:36.141Z,100.00
2024-02-16T08:46:16.109Z,100.00
2024-02-16T08:49:11.327Z,100.00
2024-02-16T08:51:58.156Z,100.00
2024-02-16T08:54:45.428Z,100.00
2024-02-16T08:57:25.172Z,100.00
2024-02-16T09:00:05.398Z,100.00
2024-02-16T09:02:45.147Z,100.00
2024-02-16T09:05:39.195Z,100.00
2024-02-16T09:08:34.128Z,100.00
2024-02-16T09:11:28.124Z,100.00
2024-02-16T09:14:22.151Z,100.00
2024-02-16T09:17:09.144Z,100.00
2024-02-16T09:19:42.546Z,100.00
2024-02-16T09:25:05.268Z,100.00
2024-02-16T09:27:52.142Z,100.00
2024-02-16T09:30:25.333Z,100.00
2024-02-16T09:33:12.252Z,100.00
2024-02-16T09:35:48.614Z,100.00
2024-02-16T09:38:35.192Z,100.00
2024-02-16T09:41:08.258Z,100.00
2024-02-16T09:43:55.243Z,100.00
2024-02-16T09:46:31.236Z,100.00
2024-02-16T09:49:22.090Z,100.00
2024-02-16T09:52:06.373Z,100.00
2024-02-16T09:54:53.191Z,100.00
2024-02-16T09:57:34.198Z,100.00
2024-02-16T10:00:28.228Z,100.00
2024-02-16T10:03:18.186Z,100.00
2024-02-16T10:05:51.381Z,100.00
2024-02-16T10:08:39.673Z,100.00
2024-02-16T10:11:15.952Z,100.00
2024-02-16T10:14:10.156Z,100.00
2024-02-16T10:16:50.159Z,100.00
2024-02-16T10:19:47.249Z,100.00
2024-02-16T10:22:27.152Z,100.00
2024-02-16T10:25:19.194Z,100.00
2024-02-16T10:28:02.319Z,100.00
2024-02-16T10:30:47.230Z,100.00
2024-02-16T10:33:35.294Z,100.00
2024-02-16T10:36:09.356Z,100.00
2024-02-16T10:38:58.188Z,100.00
2024-02-16T10:41:35.702Z,100.00
2024-02-16T10:44:22.165Z,100.00
2024-02-16T10:47:02.862Z,100.00
2024-02-16T10:49:49.379Z,100.00
2024-02-16T10:52:23.218Z,100.00
2024-02-16T10:55:12.174Z,100.00
2024-02-16T10:57:46.093Z,100.00
2024-02-16T11:00:34.264Z,100.00
2024-02-16T11:03:07.861Z,100.00
2024-02-16T11:06:10.259Z,100.00
2024-02-16T11:08:57.193Z,100.00
2024-02-16T11:11:38.161Z,100.00
2024-02-16T11:14:32.152Z,100.00
2024-02-16T11:17:21.209Z,100.00
2024-02-16T11:19:56.424Z,100.00
2024-02-16T11:22:46.163Z,100.00
2024-02-16T11:25:19.309Z,100.00
2024-02-16T11:28:07.148Z,100.00
2024-02-16T11:30:47.347Z,100.00
2024-02-16T11:33:27.326Z,100.00
2024-02-16T11:36:11.220Z,100.00
2024-02-16T11:38:51.214Z,100.00
2024-02-16T11:41:31.280Z,100.00
2024-02-16T11:44:11.174Z,100.00
2024-02-16T11:46:51.277Z,100.00
2024-02-16T11:49:31.433Z,100.00
2024-02-16T11:52:15.648Z,100.00
2024-02-16T11:54:56.133Z,100.00
2024-02-16T11:57:37.502Z,99.72
2024-02-16T12:00:22.198Z,99.84
2024-02-16T12:03:11.728Z,99.37
2024-02-16T12:06:02.270Z,98.96
2024-02-16T12:08:51.199Z,98.68
2024-02-16T12:11:45.154Z,97.43
2024-02-16T12:14:39.229Z,97.67
2024-02-16T12:17:33.204Z,97.17
2024-02-16T12:20:27.195Z,97.26
2024-02-16T12:23:27.218Z,96.82
2024-02-16T12:26:14.203Z,96.64
2024-02-16T12:29:02.194Z,96.58
2024-02-16T12:31:45.263Z,96.40
2024-02-16T12:34:27.004Z,96.88
2024-02-16T12:37:07.219Z,95.93
2024-02-16T12:39:55.230Z,95.98
2024-02-16T12:42:28.682Z,96.14
2024-02-16T12:45:15.273Z,95.60
2024-02-16T12:47:48.692Z,95.64
2024-02-16T12:50:35.229Z,95.33
2024-02-16T12:53:16.239Z,95.45
2024-02-16T12:56:05.991Z,95.97
2024-02-16T12:58:40.259Z,95.65
2024-02-16T13:01:27.431Z,96.49
2024-02-16T13:04:00.666Z,96.27
2024-02-16T13:06:47.392Z,96.12
2024-02-16T13:09:27.279Z,96.16
2024-02-16T13:12:15.794Z,95.79
2024-02-16T13:14:58.649Z,95.81
2024-02-16T13:17:39.396Z,96.08
2024-02-16T13:20:19.315Z,95.93
2024-02-16T13:23:07.933Z,96.08
2024-02-16T13:25:48.248Z,95.69
2024-02-16T13:28:35.274Z,95.78
2024-02-16T13:31:17.224Z,95.74
2024-02-16T13:34:06.311Z,96.01
2024-02-16T13:36:47.296Z,95.71
2024-02-16T13:39:35.412Z,95.84
2024-02-16T13:42:15.291Z,95.89
2024-02-16T13:44:55.378Z,96.20
2024-02-16T13:47:35.261Z,96.28
2024-02-16T13:50:15.584Z,96.82
2024-02-16T13:52:55.231Z,96.66
2024-02-16T13:55:42.222Z,97.27
2024-02-16T13:58:22.213Z,97.43
2024-02-16T14:01:09.298Z,97.64
2024-02-16T14:03:49.286Z,97.63
2024-02-16T14:06:43.424Z,97.46
2024-02-16T14:09:34.254Z,97.75
2024-02-16T14:12:08.379Z,97.86
2024-02-16T14:14:56.230Z,97.76
2024-02-16T14:17:29.361Z,97.98
2024-02-16T14:20:16.368Z,97.54
2024-02-16T14:22:56.263Z,97.79
2024-02-16T14:25:45.244Z,97.71
2024-02-16T14:28:25.223Z,98.04
2024-02-16T14:31:21.316Z,98.26
2024-02-16T14:34:08.457Z,98.41
2024-02-16T14:36:55.228Z,98.93
2024-02-16T14:39:28.642Z,99.03
2024-02-16T14:42:15.301Z,98.80
2024-02-16T14:44:50.894Z,99.18
2024-02-16T14:47:39.327Z,99.01
2024-02-16T14:50:20.338Z,99.45
2024-02-16T14:53:00.394Z,99.58
2024-02-16T14:55:40.249Z,99.75
2024-02-16T14:58:27.273Z,99.45
2024-02-16T15:01:00.679Z,99.63
2024-02-16T15:03:47.378Z,99.86
2024-02-16T15:06:27.277Z,99.88
2024-02-16T15:09:08.062Z,99.96
2024-02-16T15:11:48.374Z,100.00
2024-02-16T15:14:35.292Z,100.00
2024-02-16T15:17:09.251Z,100.00
2024-02-16T15:19:56.441Z,100.00
2024-02-16T15:22:36.349Z,100.00
2024-02-16T15:25:29.275Z,100.00
2024-02-16T15:28:02.942Z,100.00
2024-02-16T15:30:49.341Z,100.00
2024-02-16T15:33:22.737Z,100.00
2024-02-16T15:36:09.335Z,100.00
2024-02-16T15:38:42.931Z,100.00
2024-02-16T15:41:29.233Z,100.00
2024-02-16T15:44:03.773Z,100.00
2024-02-16T15:46:52.261Z,100.00
2024-02-16T15:49:25.695Z,100.00
2024-02-16T15:52:12.339Z,100.00
2024-02-16T15:54:45.743Z,100.00
2024-02-16T15:57:39.282Z,100.00
2024-02-16T16:00:33.352Z,100.00
2024-02-16T16:03:20.336Z,100.00
2024-02-16T16:05:53.436Z,100.00
2024-02-16T16:08:40.271Z,100.00
2024-02-16T16:11:13.420Z,100.00
2024-02-16T16:14:00.297Z,100.00
2024-02-16T16:16:33.386Z,100.00
2024-02-16T16:19:20.309Z,100.00
2024-02-16T16:21:53.448Z,100.00
2024-02-16T16:24:40.351Z,100.00
2024-02-16T16:27:21.272Z,100.00
2024-02-16T16:30:15.319Z,100.00
2024-02-16T16:33:03.361Z,100.00
2024-02-16T16:35:43.364Z,100.00
2024-02-16T16:38:30.297Z,100.00
2024-02-16T16:41:17.292Z,100.00
2024-02-16T16:43:50.627Z,100.00
2024-02-16T16:46:37.298Z,100.00
2024-02-16T16:49:13.733Z,100.00
2024-02-16T16:52:01.312Z,100.00
2024-02-16T16:54:43.327Z,100.00
2024-02-16T16:57:30.345Z,100.00
2024-02-16T17:00:06.329Z,100.00
2024-02-16T17:02:53.299Z,100.00
2024-02-16T17:05:40.291Z,100.00
2024-02-16T17:08:27.288Z,100.00
2024-02-16T17:11:00.537Z,100.00
2024-02-16T17:13:49.183Z,100.00
2024-02-16T17:16:23.472Z,100.00
2024-02-16T17:19:11.367Z,100.00
2024-02-16T17:21:44.489Z,100.00
2024-02-16T17:24:32.424Z,100.00
2024-02-16T17:27:06.440Z,100.00
2024-02-16T17:29:54.314Z,100.00
2024-02-16T17:32:34.396Z,100.00
2024-02-16T17:35:28.413Z,100.00
2024-02-16T17:38:16.330Z,100.00
2024-02-16T17:40:52.448Z,100.00
2024-02-16T17:43:40.342Z,100.00
2024-02-16T17:46:13.466Z,100.00
2024-02-16T17:49:00.555Z,100.00
2024-02-16T17:51:41.452Z,100.00
2024-02-16T17:54:28.357Z,100.00
2024-02-16T17:57:02.952Z,100.00
2024-02-16T17:59:49.323Z,100.00
2024-02-16T18:02:35.498Z,100.00
2024-02-16T18:05:35.321Z,100.00
2024-02-16T18:08:22.356Z,100.00
2024-02-16T18:11:02.344Z,100.00
2024-02-16T18:13:42.738Z,100.00
2024-02-16T18:16:34.335Z,100.00
2024-02-16T18:19:14.430Z,100.00
2024-02-16T18:21:54.330Z,100.00
2024-02-16T18:24:27.551Z,100.00
2024-02-16T18:27:08.365Z,100.00
2024-02-16T18:29:48.478Z,100.00
2024-02-16T18:32:28.400Z,100.00
2024-02-16T18:35:09.105Z,100.00
2024-02-16T18:37:49.341Z,100.00
2024-02-16T18:40:36.348Z,100.00
2024-02-16T18:43:20.329Z,100.00
2024-02-16T18:46:00.519Z,100.00
2024-02-16T18:48:41.550Z,100.00
2024-02-16T18:51:22.649Z,100.00
2024-02-16T18:54:02.437Z,100.00
2024-02-16T18:56:42.954Z,100.00
2024-02-16T18:59:23.372Z,100.00
2024-02-16T19:02:10.350Z,100.00
2024-02-16T19:04:44.223Z,100.00
2024-02-16T19:07:31.386Z,100.00
2024-02-16T19:10:05.856Z,100.00
2024-02-16T19:12:52.447Z,100.00
2024-02-16T19:15:39.443Z,100.00
2024-02-16T19:18:19.615Z,100.00
2024-02-16T19:21:01.354Z,100.00
2024-02-16T19:23:48.488Z,100.00
2024-02-16T19:26:28.359Z,100.00
2024-02-16T19:29:15.336Z,100.00
2024-02-16T19:31:55.392Z,100.00
2024-02-16T19:34:43.445Z,100.00
2024-02-16T19:37:23.365Z,100.00
2024-02-16T19:40:10.333Z,100.00
2024-02-16T19:42:45.044Z,100.00
2024-02-16T19:45:32.382Z,100.00
2024-02-16T19:48:06.219Z,100.00
2024-02-16T19:50:54.466Z,100.00
2024-02-16T19:53:35.421Z,100.00
2024-02-16T19:56:22.356Z,100.00
2024-02-16T19:59:02.404Z,100.00
2024-02-16T20:01:42.520Z,100.00
2024-02-16T20:04:22.444Z,100.00
2024-02-16T20:07:16.435Z,100.00
2024-02-16T20:10:04.407Z,100.00
2024-02-16T20:12:51.372Z,100.00
2024-02-16T20:15:36.432Z,100.00
2024-02-16T20:18:20.726Z,100.00
2024-02-16T20:21:01.381Z,100.00
2024-02-16T20:23:44.304Z,100.00
2024-02-16T20:26:37.212Z,100.00
2024-02-16T20:29:17.460Z,100.00
2024-02-16T20:31:57.374Z,100.00
2024-02-16T20:34:37.716Z,100.00
2024-02-16T20:37:17.379Z,100.00
2024-02-16T20:40:05.430Z,100.00
2024-02-16T20:42:39.683Z,100.00
2024-02-16T20:45:27.486Z,100.00
2024-02-16T20:48:01.111Z,100.00
2024-02-16T20:50:48.419Z,100.00
2024-02-16T20:53:21.714Z,100.00
2024-02-16T20:56:08.406Z,100.00
2024-02-16T20:58:41.797Z,100.00
2024-02-16T21:01:28.462Z,100.00
2024-02-16T21:04:01.952Z,100.00
2024-02-16T21:06:48.576Z,100.00
2024-02-16T21:09:42.535Z,100.00
2024-02-16T21:12:29.473Z,100.00
2024-02-16T21:15:02.601Z,100.00
2024-02-16T21:17:49.556Z,100.00
2024-02-16T21:20:23.149Z,100.00
2024-02-16T21:23:10.385Z,100.00
2024-02-16T21:25:43.521Z,100.00
2024-02-16T21:28:30.446Z,100.00
2024-02-16T21:31:10.443Z,100.00
2024-02-16T21:34:04.569Z,100.00
2024-02-16T21:37:01.433Z,100.00
2024-02-16T21:39:55.383Z,100.00
2024-02-16T21:42:42.540Z,100.00
2024-02-16T21:45:17.724Z,100.00
2024-02-16T21:48:06.461Z,100.00
2024-02-16T21:50:39.628Z,100.00
2024-02-16T21:53:26.396Z,100.00
2024-02-16T21:56:06.413Z,100.00
2024-02-16T21:59:00.437Z,100.00
2024-02-16T22:01:47.448Z,100.00
2024-02-16T22:04:21.565Z,100.00
2024-02-16T22:07:08.612Z,100.00
2024-02-16T22:09:49.482Z,100.00
2024-02-16T22:12:36.421Z,100.00
2024-02-16T22:15:23.480Z,100.00
2024-02-16T22:17:56.923Z,100.00
2024-02-16T22:20:43.428Z,100.00
2024-02-16T22:23:23.447Z,100.00
2024-02-16T22:26:03.591Z,100.00
2024-02-16T22:28:46.465Z,100.00
2024-02-16T22:31:39.532Z,100.00
2024-02-16T22:34:24.538Z,100.00
2024-02-16T22:37:11.436Z,100.00
2024-02-16T22:39:44.905Z,100.00
2024-02-16T22:42:31.450Z,100.00
2024-02-16T22:45:05.507Z,100.00
2024-02-16T22:47:52.448Z,100.00
2024-02-16T22:50:26.034Z,100.00
2024-02-16T22:53:12.454Z,100.00
2024-02-16T22:55:47.491Z,100.00
2024-02-16T22:58:34.433Z,100.00
2024-02-16T23:01:08.129Z,100.00
2024-02-16T23:03:55.508Z,100.00
2024-02-16T23:06:42.530Z,100.00
2024-02-16T23:09:30.484Z,100.00
2024-02-16T23:12:04.551Z,100.00
2024-02-16T23:14:51.412Z,100.00
2024-02-16T23:17:24.550Z,100.00
2024-02-16T23:20:11.537Z,100.00
2024-02-16T23:23:07.147Z,100.00
2024-02-16T23:25:54.458Z,100.00
2024-02-16T23:28:27.535Z,100.00
2024-02-16T23:31:14.427Z,100.00
2024-02-16T23:33:54.518Z,100.00
2024-02-16T23:36:41.488Z,100.00
2024-02-16T23:39:21.475Z,100.00
2024-02-16T23:42:15.518Z,100.00
2024-02-16T23:45:02.572Z,100.00
2024-02-16T23:47:50.522Z,100.00
2024-02-16T23:50:44.443Z,100.00
2024-02-16T23:53:38.443Z,100.00
2024-02-16T23:56:25.420Z,100.00
2024-02-16T23:58:58.637Z,100.00
